createdAt,value
2024-02-21T00:04:34.751Z,17.00
2024-02-21T00:10:32.984Z,17.60
2024-02-21T00:16:36.901Z,18.20
2024-02-21T00:22:31.033Z,16.10
2024-02-21T00:27:45.156Z,16.60
2024-02-21T00:33:29.002Z,15.30
2024-02-21T00:39:12.807Z,16.20
2024-02-21T00:45:04.228Z,16.40
2024-02-21T00:50:28.566Z,14.60
2024-02-21T00:56:32.813Z,15.50
2024-02-21T01:01:59.179Z,15.50
2024-02-21T01:07:52.929Z,15.20
2024-02-21T01:13:46.830Z,16.50
2024-02-21T01:19:49.775Z,18.10
2024-02-21T01:25:52.716Z,15.10
2024-02-21T01:31:57.066Z,15.80
2024-02-21T01:37:51.439Z,20.80
2024-02-21T01:43:41.492Z,15.20
2024-02-21T01:49:45.147Z,15.10
2024-02-21T01:55:45.443Z,15.30
2024-02-21T02:01:40.309Z,14.30
2024-02-21T02:07:26.843Z,14.90
2024-02-21T02:13:30.776Z,14.60
2024-02-21T02:19:33.345Z,12.80
2024-02-21T02:25:37.186Z,13.60
2024-02-21T02:31:40.766Z,14.20
2024-02-21T02:37:27.308Z,12.30
2024-02-21T02:43:11.076Z,13.00
2024-02-21T02:49:12.812Z,12.50
2024-02-21T02:55:16.596Z,11.00
2024-02-21T03:01:12.584Z,11.70
2024-02-21T03:07:06.828Z,12.40
2024-02-21T03:13:10.609Z,12.90
2024-02-21T03:19:14.400Z,13.00
2024-02-21T03:25:19.107Z,11.40
2024-02-21T03:31:22.216Z,12.00
2024-02-21T03:37:26.281Z,11.00
2024-02-21T03:43:29.936Z,10.80
2024-02-21T03:49:33.747Z,12.50
2024-02-21T03:55:38.943Z,10.80
2024-02-21T04:01:42.681Z,9.40
2024-02-21T04:07:22.500Z,11.40
2024-02-21T04:13:26.245Z,9.40
2024-02-21T04:19:30.077Z,8.80
2024-02-21T04:25:33.991Z,8.90
2024-02-21T04:31:37.833Z,8.20
2024-02-21T04:37:41.621Z,8.50
2024-02-21T04:43:45.398Z,9.10
2024-02-21T04:49:48.906Z,9.60
2024-02-21T04:55:46.133Z,8.10
2024-02-21T05:01:49.900Z,9.00
2024-02-21T05:07:53.804Z,9.00
2024-02-21T05:13:57.578Z,7.40
2024-02-21T05:20:02.049Z,7.80
2024-02-21T05:26:06.248Z,8.20
2024-02-21T05:32:10.463Z,6.80
2024-02-21T05:38:14.199Z,7.40
2024-02-21T05:44:17.934Z,7.20
2024-02-21T05:50:15.129Z,8.10
2024-02-21T05:56:18.898Z,7.60
2024-02-21T06:02:22.647Z,7.10
2024-02-21T06:08:26.410Z,8.30
2024-02-21T06:14:30.065Z,6.90
2024-02-21T06:20:33.858Z,7.60
2024-02-21T06:26:37.731Z,8.50
2024-02-21T06:32:41.594Z,7.80
2024-02-21T06:38:45.362Z,6.70
2024-02-21T06:44:49.233Z,8.00
2024-02-21T06:50:52.972Z,7.90
2024-02-21T06:56:56.507Z,11.70
2024-02-21T07:03:00.233Z,6.90
2024-02-21T07:09:04.381Z,11.80
2024-02-21T07:15:07.985Z,8.20
2024-02-21T07:21:11.929Z,7.50
2024-02-21T07:27:15.517Z,9.30
2024-02-21T07:33:19.261Z,12.00
2024-02-21T07:39:22.984Z,10.50
2024-02-21T07:45:20.282Z,9.30
2024-02-21T07:51:24.084Z,7.00
2024-02-21T07:57:27.849Z,11.20
2024-02-21T08:02:52.043Z,13.10
2024-02-21T08:08:55.999Z,13.30
2024-02-21T08:14:59.703Z,11.40
2024-02-21T08:20:24.073Z,13.90
2024-02-21T08:26:28.067Z,10.10
2024-02-21T08:32:34.585Z,12.40
2024-02-21T08:38:38.543Z,14.20
2024-02-21T08:44:42.247Z,13.50
2024-02-21T08:50:46.098Z,12.10
2024-02-21T08:56:39.846Z,11.00
2024-02-21T09:02:33.533Z,11.30
2024-02-21T09:08:37.324Z,12.30
2024-02-21T09:14:00.936Z,12.50
2024-02-21T09:20:05.049Z,14.90
2024-02-21T09:26:09.084Z,20.10
2024-02-21T09:32:12.880Z,22.70
2024-02-21T09:38:10.042Z,26.50
2024-02-21T09:43:46.355Z,32.20
2024-02-21T09:49:41.039Z,25.70
2024-02-21T09:55:25.235Z,25.40
2024-02-21T10:00:29.158Z,24.60
2024-02-21T10:06:21.774Z,25.20
2024-02-21T10:12:09.155Z,21.20
2024-02-21T10:18:12.968Z,22.80
2024-02-21T10:24:25.634Z,29.80
2024-02-21T10:30:29.140Z,25.10
2024-02-21T10:36:25.691Z,23.40
2024-02-21T10:42:29.787Z,21.00
2024-02-21T10:48:23.356Z,21.80
2024-02-21T10:54:22.203Z,17.00
2024-02-21T11:00:25.756Z,23.20
2024-02-21T11:06:13.442Z,20.00
2024-02-21T11:12:17.339Z,18.40
2024-02-21T11:17:37.415Z,22.20
2024-02-21T11:23:45.566Z,20.70
2024-02-21T11:29:49.459Z,22.30
2024-02-21T11:36:02.055Z,21.00
2024-02-21T11:42:05.956Z,17.00
2024-02-21T11:47:18.806Z,16.10
2024-02-21T11:52:50.918Z,20.10
2024-02-21T11:58:36.075Z,23.80
2024-02-21T12:04:40.140Z,19.30
2024-02-21T12:10:36.724Z,22.70
2024-02-21T12:16:40.548Z,24.70
2024-02-21T12:23:04.907Z,19.70
2024-02-21T12:29:09.336Z,17.30
2024-02-21T12:35:13.173Z,19.30
2024-02-21T12:41:17.404Z,19.10
2024-02-21T12:47:12.372Z,18.30
2024-02-21T12:53:22.789Z,20.50
2024-02-21T12:59:12.718Z,23.10
2024-02-21T13:05:16.655Z,18.00
2024-02-21T13:10:46.616Z,20.20
2024-02-21T13:16:40.474Z,19.50
2024-02-21T13:22:28.532Z,17.20
2024-02-21T13:27:52.444Z,23.80
2024-02-21T13:33:39.714Z,18.10
2024-02-21T13:39:39.012Z,22.10
2024-02-21T13:45:43.055Z,21.70
2024-02-21T13:51:45.414Z,16.90
2024-02-21T13:57:49.083Z,19.70
2024-02-21T14:03:51.462Z,22.90
2024-02-21T14:09:55.183Z,18.00
2024-02-21T14:15:51.933Z,20.60
2024-02-21T14:21:55.838Z,14.70
2024-02-21T14:27:58.444Z,18.10
2024-02-21T14:34:02.405Z,16.40
2024-02-21T14:40:06.328Z,16.10
2024-02-21T14:46:10.264Z,23.00
2024-02-21T14:52:04.066Z,17.70
2024-02-21T14:57:52.821Z,18.30
2024-02-21T15:03:56.576Z,20.10
2024-02-21T15:10:00.385Z,15.60
2024-02-21T15:15:55.192Z,19.00
2024-02-21T15:21:48.957Z,14.80
2024-02-21T15:27:45.458Z,18.20
2024-02-21T15:33:49.398Z,21.30
2024-02-21T15:39:53.368Z,15.80
2024-02-21T15:45:37.136Z,19.30
2024-02-21T15:51:05.442Z,17.10
2024-02-21T15:57:09.212Z,16.40
2024-02-21T16:03:13.017Z,16.60
2024-02-21T16:08:30.613Z,17.80
2024-02-21T16:14:26.930Z,17.00
2024-02-21T16:20:18.112Z,14.80
2024-02-21T16:26:14.365Z,19.20
2024-02-21T16:32:18.160Z,18.90
2024-02-21T16:38:03.677Z,22.60
2024-02-21T16:44:07.665Z,22.50
2024-02-21T16:50:11.669Z,23.20
2024-02-21T16:55:37.358Z,25.30
2024-02-21T17:01:21.418Z,23.10
2024-02-21T17:07:25.312Z,20.30
2024-02-21T17:13:29.279Z,23.80
2024-02-21T17:19:33.346Z,27.20
2024-02-21T17:25:37.282Z,24.60
2024-02-21T17:31:40.065Z,21.30
2024-02-21T17:37:36.451Z,23.60
2024-02-21T17:43:22.471Z,25.50
2024-02-21T17:49:04.389Z,26.20
2024-02-21T17:54:47.753Z,28.10
2024-02-21T18:00:42.644Z,29.00
2024-02-21T18:06:46.145Z,34.70
2024-02-21T18:12:49.930Z,26.60
2024-02-21T18:18:52.528Z,28.80
2024-02-21T18:24:45.166Z,27.20
2024-02-21T18:30:49.264Z,27.00
2024-02-21T18:36:51.923Z,31.60
2024-02-21T18:42:55.788Z,26.40
2024-02-21T18:48:32.081Z,26.90
2024-02-21T18:54:07.129Z,24.30
2024-02-21T18:59:50.775Z,25.40
2024-02-21T19:04:57.360Z,23.20
2024-02-21T19:10:32.012Z,25.10
2024-02-21T19:16:11.375Z,23.70
2024-02-21T19:21:20.367Z,25.00
2024-02-21T19:27:11.422Z,22.80
2024-02-21T19:33:14.433Z,27.20
2024-02-21T19:39:10.423Z,25.70
2024-02-21T19:45:14.321Z,25.00
2024-02-21T19:50:23.437Z,23.70
2024-02-21T19:56:20.980Z,23.20
2024-02-21T20:02:24.679Z,23.30
2024-02-21T20:08:01.123Z,25.00
2024-02-21T20:13:27.264Z,24.60
2024-02-21T20:19:20.879Z,24.00
2024-02-21T20:25:24.632Z,25.20
2024-02-21T20:31:21.477Z,26.60
2024-02-21T20:37:18.709Z,23.10
2024-02-21T20:43:22.680Z,21.90
2024-02-21T20:49:28.748Z,32.10
2024-02-21T20:55:28.159Z,23.20
2024-02-21T21:01:39.088Z,22.90
2024-02-21T21:07:35.517Z,23.10
2024-02-21T21:19:33.380Z,21.20
2024-02-21T21:25:18.351Z,21.70
2024-02-21T21:30:41.270Z,21.70
2024-02-21T21:36:07.533Z,20.90
2024-02-21T21:42:03.015Z,23.60
2024-02-21T21:47:49.537Z,19.40
2024-02-21T21:53:36.063Z,22.20
2024-02-21T21:59:30.824Z,23.40
2024-02-21T22:05:34.578Z,25.60
2024-02-21T22:11:09.694Z,21.10
2024-02-21T22:17:14.845Z,19.90
2024-02-21T22:23:13.373Z,23.60
2024-02-21T22:29:17.130Z,21.10
2024-02-21T22:35:02.469Z,21.90
2024-02-21T22:41:06.547Z,22.80
2024-02-21T22:47:10.263Z,19.60
2024-02-21T22:52:56.886Z,20.80
2024-02-21T22:58:00.372Z,19.40
2024-02-21T23:03:04.268Z,20.20
2024-02-21T23:09:03.728Z,19.30
2024-02-21T23:15:07.372Z,19.50
2024-02-21T23:21:03.892Z,17.00
2024-02-21T23:26:35.354Z,17.40
2024-02-21T23:32:42.541Z,17.10
2024-02-21T23:38:35.248Z,19.60
2024-02-21T23:44:36.472Z,17.20
2024-02-21T23:50:40.342Z,18.40
2024-02-21T23:56:44.020Z,16.30
